sensor_id;sensor_type;location;lat;lon;timestamp;P1;durP1;ratioP1;P2;durP2;ratioP2
68479;SDS011;55469;48.934;12.050;2022-11-20T00:01:28;13.35;;;7.22;;
68479;SDS011;55469;48.934;12.050;2022-11-20T00:03:55;15.02;;;7.85;;
68479;SDS011;55469;48.934;12.050;2022-11-20T00:06:26;17.50;;;8.35;;
68479;SDS011;55469;48.934;12.050;2022-11-20T00:08:56;13.75;;;7.32;;
68479;SDS011;55469;48.934;12.050;2022-11-20T00:11:26;13.90;;;6.97;;
68479;SDS011;55469;48.934;12.050;2022-11-20T00:13:55;16.00;;;8.02;;
68479;SDS011;55469;48.934;12.050;2022-11-20T00:16:24;13.40;;;7.30;;
68479;SDS011;55469;48.934;12.050;2022-11-20T00:18:52;12.98;;;6.88;;
68479;SDS011;55469;48.934;12.050;2022-11-20T00:21:23;12.07;;;7.07;;
68479;SDS011;55469;48.934;12.050;2022-11-20T00:23:52;14.45;;;7.72;;
68479;SDS011;55469;48.934;12.050;2022-11-20T00:26:20;13.40;;;7.40;;
68479;SDS011;55469;48.934;12.050;2022-11-20T00:28:51;13.90;;;7.10;;
68479;SDS011;55469;48.934;12.050;2022-11-20T00:31:21;13.55;;;7.63;;
68479;SDS011;55469;48.934;12.050;2022-11-20T00:33:47;13.40;;;7.20;;
68479;SDS011;55469;48.934;12.050;2022-11-20T00:36:14;14.27;;;7.38;;
68479;SDS011;55469;48.934;12.050;2022-11-20T00:38:42;13.02;;;7.18;;
68479;SDS011;55469;48.934;12.050;2022-11-20T00:41:09;16.15;;;8.05;;
68479;SDS011;55469;48.934;12.050;2022-11-20T00:43:37;13.80;;;6.75;;
68479;SDS011;55469;48.934;12.050;2022-11-20T00:46:07;14.05;;;7.10;;
68479;SDS011;55469;48.934;12.050;2022-11-20T00:48:40;14.98;;;7.30;;
68479;SDS011;55469;48.934;12.050;2022-11-20T00:51:06;14.20;;;6.93;;
68479;SDS011;55469;48.934;12.050;2022-11-20T00:53:32;13.65;;;7.30;;
68479;SDS011;55469;48.934;12.050;2022-11-20T00:55:59;14.25;;;7.22;;
68479;SDS011;55469;48.934;12.050;2022-11-20T00:58:31;14.30;;;7.50;;
68479;SDS011;55469;48.934;12.050;2022-11-20T01:01:00;12.48;;;7.28;;
68479;SDS011;55469;48.934;12.050;2022-11-20T01:03:33;15.38;;;8.18;;
68479;SDS011;55469;48.934;12.050;2022-11-20T01:06:02;14.88;;;7.35;;
68479;SDS011;55469;48.934;12.050;2022-11-20T01:08:34;15.23;;;7.60;;
68479;SDS011;55469;48.934;12.050;2022-11-20T01:11:01;13.57;;;7.30;;
68479;SDS011;55469;48.934;12.050;2022-11-20T01:13:31;13.25;;;7.40;;
68479;SDS011;55469;48.934;12.050;2022-11-20T01:16:14;13.98;;;7.30;;
68479;SDS011;55469;48.934;12.050;2022-11-20T01:18:46;14.23;;;7.28;;
68479;SDS011;55469;48.934;12.050;2022-11-20T01:21:18;11.57;;;6.68;;
68479;SDS011;55469;48.934;12.050;2022-11-20T01:23:50;13.07;;;7.05;;
68479;SDS011;55469;48.934;12.050;2022-11-20T01:26:27;13.93;;;7.47;;
68479;SDS011;55469;48.934;12.050;2022-11-20T01:28:55;12.85;;;7.13;;
68479;SDS011;55469;48.934;12.050;2022-11-20T01:31:23;13.25;;;6.90;;
68479;SDS011;55469;48.934;12.050;2022-11-20T01:33:56;13.93;;;7.15;;
68479;SDS011;55469;48.934;12.050;2022-11-20T01:36:27;14.07;;;7.35;;
68479;SDS011;55469;48.934;12.050;2022-11-20T01:38:56;12.23;;;7.22;;
68479;SDS011;55469;48.934;12.050;2022-11-20T01:41:26;12.55;;;6.63;;
68479;SDS011;55469;48.934;12.050;2022-11-20T01:44:13;13.00;;;6.82;;
68479;SDS011;55469;48.934;12.050;2022-11-20T01:46:53;12.57;;;7.05;;
68479;SDS011;55469;48.934;12.050;2022-11-20T01:52:04;12.30;;;6.97;;
68479;SDS011;55469;48.934;12.050;2022-11-20T01:54:35;12.00;;;6.72;;
68479;SDS011;55469;48.934;12.050;2022-11-20T01:57:06;13.05;;;7.05;;
68479;SDS011;55469;48.934;12.050;2022-11-20T01:59:37;13.02;;;6.60;;
68479;SDS011;55469;48.934;12.050;2022-11-20T02:02:08;12.60;;;6.60;;
68479;SDS011;55469;48.934;12.050;2022-11-20T02:04:33;11.88;;;6.57;;
68479;SDS011;55469;48.934;12.050;2022-11-20T02:07:00;12.95;;;6.82;;
68479;SDS011;55469;48.934;12.050;2022-11-20T02:09:28;12.95;;;7.03;;
68479;SDS011;55469;48.934;12.050;2022-11-20T02:11:54;13.43;;;6.75;;
68479;SDS011;55469;48.934;12.050;2022-11-20T02:14:21;13.50;;;7.03;;
68479;SDS011;55469;48.934;12.050;2022-11-20T02:16:48;10.07;;;6.07;;
68479;SDS011;55469;48.934;12.050;2022-11-20T02:19:28;12.57;;;6.78;;
68479;SDS011;55469;48.934;12.050;2022-11-20T02:22:06;12.52;;;6.57;;
68479;SDS011;55469;48.934;12.050;2022-11-20T02:24:39;11.35;;;6.25;;
68479;SDS011;55469;48.934;12.050;2022-11-20T02:27:09;10.63;;;5.93;;
68479;SDS011;55469;48.934;12.050;2022-11-20T02:29:39;11.60;;;6.82;;
68479;SDS011;55469;48.934;12.050;2022-11-20T02:34:57;11.20;;;6.05;;
68479;SDS011;55469;48.934;12.050;2022-11-20T02:37:23;12.85;;;6.30;;
68479;SDS011;55469;48.934;12.050;2022-11-20T02:39:58;11.52;;;6.05;;
68479;SDS011;55469;48.934;12.050;2022-11-20T02:42:24;12.40;;;6.82;;
68479;SDS011;55469;48.934;12.050;2022-11-20T02:44:49;10.88;;;6.28;;
68479;SDS011;55469;48.934;12.050;2022-11-20T02:47:15;12.75;;;6.75;;
68479;SDS011;55469;48.934;12.050;2022-11-20T02:49:41;11.63;;;6.07;;
68479;SDS011;55469;48.934;12.050;2022-11-20T02:52:06;12.13;;;6.68;;
68479;SDS011;55469;48.934;12.050;2022-11-20T02:54:32;11.35;;;6.55;;
68479;SDS011;55469;48.934;12.050;2022-11-20T02:56:58;12.80;;;6.68;;
68479;SDS011;55469;48.934;12.050;2022-11-20T02:59:24;11.48;;;6.32;;
68479;SDS011;55469;48.934;12.050;2022-11-20T03:01:50;10.63;;;5.93;;
68479;SDS011;55469;48.934;12.050;2022-11-20T03:04:15;11.73;;;6.43;;
68479;SDS011;55469;48.934;12.050;2022-11-20T03:06:41;13.27;;;6.40;;
68479;SDS011;55469;48.934;12.050;2022-11-20T03:09:07;10.50;;;5.68;;
68479;SDS011;55469;48.934;12.050;2022-11-20T03:11:33;10.50;;;5.80;;
68479;SDS011;55469;48.934;12.050;2022-11-20T03:14:01;10.18;;;6.03;;
68479;SDS011;55469;48.934;12.050;2022-11-20T03:16:30;10.73;;;5.60;;
68479;SDS011;55469;48.934;12.050;2022-11-20T03:18:57;10.27;;;5.50;;
68479;SDS011;55469;48.934;12.050;2022-11-20T03:21:23;11.43;;;6.50;;
68479;SDS011;55469;48.934;12.050;2022-11-20T03:23:49;11.63;;;6.50;;
68479;SDS011;55469;48.934;12.050;2022-11-20T03:26:17;9.85;;;5.65;;
68479;SDS011;55469;48.934;12.050;2022-11-20T03:28:52;10.50;;;5.70;;
68479;SDS011;55469;48.934;12.050;2022-11-20T03:31:21;11.15;;;5.90;;
68479;SDS011;55469;48.934;12.050;2022-11-20T03:33:50;11.43;;;5.97;;
68479;SDS011;55469;48.934;12.050;2022-11-20T03:36:16;12.75;;;6.43;;
68479;SDS011;55469;48.934;12.050;2022-11-20T03:38:44;10.60;;;5.88;;
68479;SDS011;55469;48.934;12.050;2022-11-20T03:41:12;10.70;;;5.78;;
68479;SDS011;55469;48.934;12.050;2022-11-20T03:43:46;10.23;;;5.60;;
68479;SDS011;55469;48.934;12.050;2022-11-20T03:46:16;9.93;;;5.20;;
68479;SDS011;55469;48.934;12.050;2022-11-20T03:48:42;10.38;;;5.75;;
68479;SDS011;55469;48.934;12.050;2022-11-20T03:51:15;9.80;;;5.90;;
68479;SDS011;55469;48.934;12.050;2022-11-20T03:53:50;12.10;;;5.97;;
68479;SDS011;55469;48.934;12.050;2022-11-20T03:56:18;11.13;;;5.78;;
68479;SDS011;55469;48.934;12.050;2022-11-20T03:58:48;9.73;;;5.70;;
68479;SDS011;55469;48.934;12.050;2022-11-20T04:01:15;10.27;;;6.05;;
68479;SDS011;55469;48.934;12.050;2022-11-20T04:03:43;11.70;;;5.90;;
68479;SDS011;55469;48.934;12.050;2022-11-20T04:06:11;12.10;;;6.43;;
68479;SDS011;55469;48.934;12.050;2022-11-20T04:08:43;9.90;;;5.80;;
68479;SDS011;55469;48.934;12.050;2022-11-20T04:11:11;8.98;;;5.50;;
68479;SDS011;55469;48.934;12.050;2022-11-20T04:13:47;10.10;;;5.93;;
68479;SDS011;55469;48.934;12.050;2022-11-20T04:16:16;11.13;;;5.45;;
68479;SDS011;55469;48.934;12.050;2022-11-20T04:18:43;9.30;;;5.80;;
68479;SDS011;55469;48.934;12.050;2022-11-20T04:21:09;11.57;;;6.13;;
68479;SDS011;55469;48.934;12.050;2022-11-20T04:23:35;9.73;;;5.30;;
68479;SDS011;55469;48.934;12.050;2022-11-20T04:26:08;9.30;;;5.65;;
68479;SDS011;55469;48.934;12.050;2022-11-20T04:28:36;9.00;;;4.88;;
68479;SDS011;55469;48.934;12.050;2022-11-20T04:31:05;8.98;;;5.40;;
68479;SDS011;55469;48.934;12.050;2022-11-20T04:33:34;8.95;;;5.57;;
68479;SDS011;55469;48.934;12.050;2022-11-20T04:36:04;11.00;;;5.90;;
68479;SDS011;55469;48.934;12.050;2022-11-20T04:38:34;9.38;;;5.55;;
68479;SDS011;55469;48.934;12.050;2022-11-20T04:41:00;11.73;;;5.40;;
68479;SDS011;55469;48.934;12.050;2022-11-20T04:43:29;9.23;;;4.82;;
68479;SDS011;55469;48.934;12.050;2022-11-20T04:45:56;9.73;;;5.57;;
68479;SDS011;55469;48.934;12.050;2022-11-20T04:48:23;9.23;;;5.78;;
68479;SDS011;55469;48.934;12.050;2022-11-20T04:50:49;9.45;;;5.60;;
68479;SDS011;55469;48.934;12.050;2022-11-20T04:53:16;9.23;;;5.80;;
68479;SDS011;55469;48.934;12.050;2022-11-20T04:55:42;9.63;;;5.65;;
68479;SDS011;55469;48.934;12.050;2022-11-20T04:58:08;8.95;;;5.38;;
68479;SDS011;55469;48.934;12.050;2022-11-20T05:00:34;9.43;;;5.22;;
68479;SDS011;55469;48.934;12.050;2022-11-20T05:03:00;9.52;;;5.32;;
68479;SDS011;55469;48.934;12.050;2022-11-20T05:05:26;10.35;;;5.95;;
68479;SDS011;55469;48.934;12.050;2022-11-20T05:07:51;8.57;;;5.05;;
68479;SDS011;55469;48.934;12.050;2022-11-20T05:10:17;9.10;;;5.20;;
68479;SDS011;55469;48.934;12.050;2022-11-20T05:12:43;10.88;;;5.97;;
68479;SDS011;55469;48.934;12.050;2022-11-20T05:15:08;9.77;;;5.28;;
68479;SDS011;55469;48.934;12.050;2022-11-20T05:17:34;7.70;;;5.00;;
68479;SDS011;55469;48.934;12.050;2022-11-20T05:20:00;9.30;;;4.70;;
68479;SDS011;55469;48.934;12.050;2022-11-20T05:22:26;9.70;;;5.03;;
68479;SDS011;55469;48.934;12.050;2022-11-20T05:24:52;8.95;;;5.07;;
68479;SDS011;55469;48.934;12.050;2022-11-20T05:27:17;9.57;;;5.30;;
68479;SDS011;55469;48.934;12.050;2022-11-20T05:29:43;9.13;;;4.95;;
68479;SDS011;55469;48.934;12.050;2022-11-20T05:32:09;8.88;;;4.97;;
68479;SDS011;55469;48.934;12.050;2022-11-20T05:34:35;8.45;;;4.90;;
68479;SDS011;55469;48.934;12.050;2022-11-20T05:37:01;7.45;;;4.32;;
68479;SDS011;55469;48.934;12.050;2022-11-20T05:39:27;8.25;;;4.50;;
68479;SDS011;55469;48.934;12.050;2022-11-20T05:41:53;8.88;;;4.93;;
68479;SDS011;55469;48.934;12.050;2022-11-20T05:44:37;9.63;;;5.28;;
68479;SDS011;55469;48.934;12.050;2022-11-20T05:47:03;7.60;;;4.55;;
68479;SDS011;55469;48.934;12.050;2022-11-20T05:49:29;9.25;;;5.38;;
68479;SDS011;55469;48.934;12.050;2022-11-20T05:51:55;8.63;;;5.22;;
68479;SDS011;55469;48.934;12.050;2022-11-20T05:54:21;10.32;;;5.65;;
68479;SDS011;55469;48.934;12.050;2022-11-20T05:56:47;8.23;;;4.90;;
68479;SDS011;55469;48.934;12.050;2022-11-20T05:59:12;8.40;;;4.57;;
68479;SDS011;55469;48.934;12.050;2022-11-20T06:01:38;8.27;;;4.90;;
68479;SDS011;55469;48.934;12.050;2022-11-20T06:04:04;8.05;;;4.45;;
68479;SDS011;55469;48.934;12.050;2022-11-20T06:06:29;8.38;;;4.93;;
68479;SDS011;55469;48.934;12.050;2022-11-20T06:08:55;8.45;;;4.50;;
68479;SDS011;55469;48.934;12.050;2022-11-20T06:11:21;8.27;;;4.78;;
68479;SDS011;55469;48.934;12.050;2022-11-20T06:13:48;8.52;;;4.90;;
68479;SDS011;55469;48.934;12.050;2022-11-20T06:16:14;9.55;;;4.78;;
68479;SDS011;55469;48.934;12.050;2022-11-20T06:18:43;10.60;;;5.13;;
68479;SDS011;55469;48.934;12.050;2022-11-20T06:21:10;7.85;;;4.70;;
68479;SDS011;55469;48.934;12.050;2022-11-20T06:23:54;8.20;;;4.55;;
68479;SDS011;55469;48.934;12.050;2022-11-20T06:26:24;8.75;;;4.93;;
68479;SDS011;55469;48.934;12.050;2022-11-20T06:28:52;7.97;;;4.47;;
68479;SDS011;55469;48.934;12.050;2022-11-20T06:31:19;8.68;;;4.82;;
68479;SDS011;55469;48.934;12.050;2022-11-20T06:33:47;7.85;;;4.60;;
68479;SDS011;55469;48.934;12.050;2022-11-20T06:36:14;8.65;;;5.10;;
68479;SDS011;55469;48.934;12.050;2022-11-20T06:38:43;8.15;;;4.40;;
68479;SDS011;55469;48.934;12.050;2022-11-20T06:41:14;7.78;;;4.63;;
68479;SDS011;55469;48.934;12.050;2022-11-20T06:43:43;8.20;;;4.50;;
68479;SDS011;55469;48.934;12.050;2022-11-20T06:46:09;7.78;;;4.55;;
68479;SDS011;55469;48.934;12.050;2022-11-20T06:48:37;7.95;;;4.63;;
68479;SDS011;55469;48.934;12.050;2022-11-20T06:51:04;7.90;;;4.50;;
68479;SDS011;55469;48.934;12.050;2022-11-20T06:53:31;7.82;;;4.63;;
68479;SDS011;55469;48.934;12.050;2022-11-20T06:55:57;8.82;;;5.13;;
68479;SDS011;55469;48.934;12.050;2022-11-20T06:58:23;7.80;;;4.35;;
68479;SDS011;55469;48.934;12.050;2022-11-20T07:00:53;8.60;;;4.90;;
68479;SDS011;55469;48.934;12.050;2022-11-20T07:03:22;7.20;;;4.22;;
68479;SDS011;55469;48.934;12.050;2022-11-20T07:05:48;9.00;;;4.78;;
68479;SDS011;55469;48.934;12.050;2022-11-20T07:08:13;8.55;;;4.47;;
68479;SDS011;55469;48.934;12.050;2022-11-20T07:10:39;7.45;;;4.22;;
68479;SDS011;55469;48.934;12.050;2022-11-20T07:13:05;6.95;;;4.22;;
68479;SDS011;55469;48.934;12.050;2022-11-20T07:15:31;7.63;;;4.32;;
68479;SDS011;55469;48.934;12.050;2022-11-20T07:18:00;8.60;;;4.45;;
68479;SDS011;55469;48.934;12.050;2022-11-20T07:20:26;7.53;;;4.35;;
68479;SDS011;55469;48.934;12.050;2022-11-20T07:22:56;7.20;;;4.13;;
68479;SDS011;55469;48.934;12.050;2022-11-20T07:25:23;7.80;;;4.55;;
68479;SDS011;55469;48.934;12.050;2022-11-20T07:27:50;8.88;;;4.78;;
68479;SDS011;55469;48.934;12.050;2022-11-20T07:30:16;7.47;;;4.57;;
68479;SDS011;55469;48.934;12.050;2022-11-20T07:32:42;7.93;;;4.38;;
68479;SDS011;55469;48.934;12.050;2022-11-20T07:35:14;8.23;;;4.80;;
68479;SDS011;55469;48.934;12.050;2022-11-20T07:37:43;7.78;;;4.53;;
68479;SDS011;55469;48.934;12.050;2022-11-20T07:40:10;7.30;;;4.60;;
68479;SDS011;55469;48.934;12.050;2022-11-20T07:42:47;8.50;;;4.75;;
68479;SDS011;55469;48.934;12.050;2022-11-20T07:45:15;7.75;;;4.40;;
68479;SDS011;55469;48.934;12.050;2022-11-20T07:47:41;7.32;;;4.75;;
68479;SDS011;55469;48.934;12.050;2022-11-20T07:50:07;6.50;;;4.05;;
68479;SDS011;55469;48.934;12.050;2022-11-20T07:52:33;6.75;;;4.18;;
68479;SDS011;55469;48.934;12.050;2022-11-20T07:54:58;7.85;;;4.25;;
68479;SDS011;55469;48.934;12.050;2022-11-20T07:57:24;7.40;;;4.60;;
68479;SDS011;55469;48.934;12.050;2022-11-20T07:59:50;6.32;;;4.07;;
68479;SDS011;55469;48.934;12.050;2022-11-20T08:02:15;7.53;;;4.57;;
68479;SDS011;55469;48.934;12.050;2022-11-20T08:04:41;7.53;;;4.47;;
68479;SDS011;55469;48.934;12.050;2022-11-20T08:07:07;8.00;;;4.60;;
68479;SDS011;55469;48.934;12.050;2022-11-20T08:09:32;6.55;;;3.92;;
68479;SDS011;55469;48.934;12.050;2022-11-20T08:11:58;6.43;;;3.80;;
68479;SDS011;55469;48.934;12.050;2022-11-20T08:14:42;7.47;;;4.53;;
68479;SDS011;55469;48.934;12.050;2022-11-20T08:17:08;6.35;;;3.80;;
68479;SDS011;55469;48.934;12.050;2022-11-20T08:19:34;6.40;;;4.30;;
68479;SDS011;55469;48.934;12.050;2022-11-20T08:22:00;7.25;;;4.28;;
68479;SDS011;55469;48.934;12.050;2022-11-20T08:24:26;5.20;;;3.65;;
68479;SDS011;55469;48.934;12.050;2022-11-20T08:26:51;7.25;;;4.07;;
68479;SDS011;55469;48.934;12.050;2022-11-20T08:29:17;6.95;;;3.58;;
68479;SDS011;55469;48.934;12.050;2022-11-20T08:31:43;6.55;;;4.03;;
68479;SDS011;55469;48.934;12.050;2022-11-20T08:34:09;7.15;;;4.20;;
68479;SDS011;55469;48.934;12.050;2022-11-20T08:36:35;6.50;;;3.85;;
68479;SDS011;55469;48.934;12.050;2022-11-20T08:39:01;8.07;;;4.18;;
68479;SDS011;55469;48.934;12.050;2022-11-20T08:41:28;6.85;;;4.20;;
68479;SDS011;55469;48.934;12.050;2022-11-20T08:44:01;7.60;;;4.28;;
68479;SDS011;55469;48.934;12.050;2022-11-20T08:46:33;7.13;;;4.00;;
68479;SDS011;55469;48.934;12.050;2022-11-20T08:49:04;7.13;;;4.05;;
68479;SDS011;55469;48.934;12.050;2022-11-20T08:51:31;6.63;;;4.20;;
68479;SDS011;55469;48.934;12.050;2022-11-20T08:53:57;6.72;;;4.05;;
68479;SDS011;55469;48.934;12.050;2022-11-20T08:56:23;6.43;;;3.90;;
68479;SDS011;55469;48.934;12.050;2022-11-20T08:58:49;6.43;;;4.25;;
68479;SDS011;55469;48.934;12.050;2022-11-20T09:01:19;7.45;;;4.45;;
68479;SDS011;55469;48.934;12.050;2022-11-20T09:03:46;8.02;;;4.18;;
68479;SDS011;55469;48.934;12.050;2022-11-20T09:06:12;6.28;;;4.32;;
68479;SDS011;55469;48.934;12.050;2022-11-20T09:08:39;6.55;;;4.10;;
68479;SDS011;55469;48.934;12.050;2022-11-20T09:11:05;5.88;;;3.70;;
68479;SDS011;55469;48.934;12.050;2022-11-20T09:13:31;6.32;;;4.18;;
68479;SDS011;55469;48.934;12.050;2022-11-20T09:16:02;5.97;;;4.03;;
68479;SDS011;55469;48.934;12.050;2022-11-20T09:18:31;5.78;;;3.67;;
68479;SDS011;55469;48.934;12.050;2022-11-20T09:20:59;6.72;;;4.15;;
68479;SDS011;55469;48.934;12.050;2022-11-20T09:23:26;5.80;;;3.90;;
68479;SDS011;55469;48.934;12.050;2022-11-20T09:25:57;5.82;;;3.60;;
68479;SDS011;55469;48.934;12.050;2022-11-20T09:28:25;6.18;;;3.90;;
68479;SDS011;55469;48.934;12.050;2022-11-20T09:30:51;6.05;;;3.80;;
68479;SDS011;55469;48.934;12.050;2022-11-20T09:33:17;5.38;;;3.63;;
68479;SDS011;55469;48.934;12.050;2022-11-20T09:35:43;4.90;;;3.72;;
68479;SDS011;55469;48.934;12.050;2022-11-20T09:38:09;5.70;;;3.50;;
68479;SDS011;55469;48.934;12.050;2022-11-20T09:40:37;4.90;;;3.70;;
68479;SDS011;55469;48.934;12.050;2022-11-20T09:43:11;6.05;;;3.63;;
68479;SDS011;55469;48.934;12.050;2022-11-20T09:49:03;4.65;;;3.60;;
68479;SDS011;55469;48.934;12.050;2022-11-20T09:52:36;5.05;;;3.55;;
68479;SDS011;55469;48.934;12.050;2022-11-20T09:54:49;4.50;;;3.25;;
68479;SDS011;55469;48.934;12.050;2022-11-20T09:57:19;5.05;;;3.20;;
68479;SDS011;55469;48.934;12.050;2022-11-20T09:59:54;5.68;;;3.25;;
68479;SDS011;55469;48.934;12.050;2022-11-20T10:02:29;3.97;;;3.13;;
68479;SDS011;55469;48.934;12.050;2022-11-20T10:05:35;4.22;;;2.90;;
68479;SDS011;55469;48.934;12.050;2022-11-20T10:08:19;3.60;;;2.65;;
68479;SDS011;55469;48.934;12.050;2022-11-20T10:34:33;4.50;;;2.88;;
68479;SDS011;55469;48.934;12.050;2022-11-20T10:37:12;4.03;;;2.92;;
68479;SDS011;55469;48.934;12.050;2022-11-20T10:47:56;3.88;;;2.80;;
68479;SDS011;55469;48.934;12.050;2022-11-20T10:50:32;3.28;;;2.70;;
68479;SDS011;55469;48.934;12.050;2022-11-20T10:53:08;4.68;;;2.80;;
68479;SDS011;55469;48.934;12.050;2022-11-20T10:55:54;4.18;;;2.85;;
68479;SDS011;55469;48.934;12.050;2022-11-20T11:01:50;3.63;;;2.63;;
68479;SDS011;55469;48.934;12.050;2022-11-20T11:07:01;3.58;;;2.58;;
68479;SDS011;55469;48.934;12.050;2022-11-20T11:09:39;3.97;;;2.75;;
68479;SDS011;55469;48.934;12.050;2022-11-20T11:12:11;3.65;;;2.63;;
68479;SDS011;55469;48.934;12.050;2022-11-20T11:14:44;3.30;;;2.60;;
68479;SDS011;55469;48.934;12.050;2022-11-20T11:17:29;2.58;;;2.13;;
68479;SDS011;55469;48.934;12.050;2022-11-20T11:22:45;4.25;;;2.50;;
68479;SDS011;55469;48.934;12.050;2022-11-20T11:25:33;3.30;;;2.70;;
68479;SDS011;55469;48.934;12.050;2022-11-20T11:28:17;3.15;;;2.40;;
68479;SDS011;55469;48.934;12.050;2022-11-20T11:30:47;3.13;;;2.47;;
68479;SDS011;55469;48.934;12.050;2022-11-20T11:33:20;3.00;;;2.30;;
68479;SDS011;55469;48.934;12.050;2022-11-20T11:35:50;3.30;;;2.50;;
68479;SDS011;55469;48.934;12.050;2022-11-20T11:38:29;3.17;;;2.47;;
68479;SDS011;55469;48.934;12.050;2022-11-20T11:41:01;3.90;;;2.60;;
68479;SDS011;55469;48.934;12.050;2022-11-20T11:43:30;2.65;;;2.30;;
68479;SDS011;55469;48.934;12.050;2022-11-20T11:51:38;3.00;;;2.35;;
68479;SDS011;55469;48.934;12.050;2022-11-20T11:54:23;3.15;;;2.20;;
68479;SDS011;55469;48.934;12.050;2022-11-20T11:57:00;3.35;;;2.45;;
68479;SDS011;55469;48.934;12.050;2022-11-20T11:59:50;3.20;;;2.50;;
68479;SDS011;55469;48.934;12.050;2022-11-20T12:05:24;2.85;;;1.95;;
68479;SDS011;55469;48.934;12.050;2022-11-20T12:07:56;3.45;;;2.28;;
68479;SDS011;55469;48.934;12.050;2022-11-20T12:13:58;2.85;;;2.10;;
68479;SDS011;55469;48.934;12.050;2022-11-20T12:16:35;2.90;;;2.08;;
68479;SDS011;55469;48.934;12.050;2022-11-20T12:19:04;3.42;;;2.20;;
68479;SDS011;55469;48.934;12.050;2022-11-20T12:30:08;2.13;;;1.75;;
68479;SDS011;55469;48.934;12.050;2022-11-20T12:50:41;2.78;;;1.95;;
68479;SDS011;55469;48.934;12.050;2022-11-20T12:57:15;3.03;;;1.90;;
68479;SDS011;55469;48.934;12.050;2022-11-20T13:08:37;3.08;;;2.20;;
68479;SDS011;55469;48.934;12.050;2022-11-20T13:19:20;2.28;;;1.80;;
68479;SDS011;55469;48.934;12.050;2022-11-20T13:21:47;2.05;;;1.67;;
68479;SDS011;55469;48.934;12.050;2022-11-20T13:29:37;2.00;;;1.80;;
68479;SDS011;55469;48.934;12.050;2022-11-20T13:32:11;2.17;;;1.63;;
68479;SDS011;55469;48.934;12.050;2022-11-20T13:34:57;2.10;;;1.67;;
68479;SDS011;55469;48.934;12.050;2022-11-20T13:37:34;1.88;;;1.67;;
68479;SDS011;55469;48.934;12.050;2022-11-20T13:42:38;2.38;;;1.70;;
68479;SDS011;55469;48.934;12.050;2022-11-20T13:45:09;2.45;;;1.70;;
68479;SDS011;55469;48.934;12.050;2022-11-20T13:47:48;2.88;;;1.70;;
68479;SDS011;55469;48.934;12.050;2022-11-20T13:50:15;2.85;;;1.75;;
68479;SDS011;55469;48.934;12.050;2022-11-20T13:53:02;2.25;;;1.70;;
68479;SDS011;55469;48.934;12.050;2022-11-20T13:55:51;2.15;;;1.70;;
68479;SDS011;55469;48.934;12.050;2022-11-20T14:01:10;2.08;;;1.65;;
68479;SDS011;55469;48.934;12.050;2022-11-20T14:03:46;1.77;;;1.50;;
68479;SDS011;55469;48.934;12.050;2022-11-20T14:08:52;1.90;;;1.40;;
68479;SDS011;55469;48.934;12.050;2022-11-20T14:11:23;1.95;;;1.55;;
68479;SDS011;55469;48.934;12.050;2022-11-20T14:14:04;2.13;;;1.50;;
68479;SDS011;55469;48.934;12.050;2022-11-20T14:16:45;2.50;;;1.70;;
68479;SDS011;55469;48.934;12.050;2022-11-20T14:21:48;1.70;;;1.50;;
68479;SDS011;55469;48.934;12.050;2022-11-20T14:24:22;1.50;;;1.40;;
68479;SDS011;55469;48.934;12.050;2022-11-20T14:26:50;1.77;;;1.50;;
68479;SDS011;55469;48.934;12.050;2022-11-20T14:29:17;2.30;;;1.60;;
68479;SDS011;55469;48.934;12.050;2022-11-20T14:31:46;1.70;;;1.55;;
68479;SDS011;55469;48.934;12.050;2022-11-20T14:34:20;1.63;;;1.50;;
68479;SDS011;55469;48.934;12.050;2022-11-20T14:36:58;2.00;;;1.75;;
68479;SDS011;55469;48.934;12.050;2022-11-20T14:42:00;2.03;;;1.50;;
68479;SDS011;55469;48.934;12.050;2022-11-20T14:44:29;1.73;;;1.45;;
68479;SDS011;55469;48.934;12.050;2022-11-20T14:46:58;1.60;;;1.45;;
68479;SDS011;55469;48.934;12.050;2022-11-20T14:49:26;3.15;;;1.60;;
68479;SDS011;55469;48.934;12.050;2022-11-20T14:52:09;1.92;;;1.73;;
68479;SDS011;55469;48.934;12.050;2022-11-20T14:57:22;1.48;;;1.33;;
68479;SDS011;55469;48.934;12.050;2022-11-20T15:02:44;2.20;;;1.48;;
68479;SDS011;55469;48.934;12.050;2022-11-20T15:05:16;1.95;;;1.45;;
68479;SDS011;55469;48.934;12.050;2022-11-20T15:07:45;1.40;;;1.30;;
68479;SDS011;55469;48.934;12.050;2022-11-20T15:12:51;2.10;;;1.70;;
68479;SDS011;55469;48.934;12.050;2022-11-20T15:15:26;1.58;;;1.40;;
68479;SDS011;55469;48.934;12.050;2022-11-20T15:18:03;1.50;;;1.30;;
68479;SDS011;55469;48.934;12.050;2022-11-20T15:20:30;1.55;;;1.30;;
68479;SDS011;55469;48.934;12.050;2022-11-20T15:22:57;2.20;;;1.55;;
68479;SDS011;55469;48.934;12.050;2022-11-20T15:25:23;2.65;;;1.70;;
68479;SDS011;55469;48.934;12.050;2022-11-20T15:27:51;1.52;;;1.42;;
68479;SDS011;55469;48.934;12.050;2022-11-20T15:30:20;1.98;;;1.50;;
68479;SDS011;55469;48.934;12.050;2022-11-20T15:32:46;1.60;;;1.40;;
68479;SDS011;55469;48.934;12.050;2022-11-20T15:35:12;2.20;;;1.48;;
68479;SDS011;55469;48.934;12.050;2022-11-20T15:37:39;1.75;;;1.38;;
68479;SDS011;55469;48.934;12.050;2022-11-20T15:40:06;1.75;;;1.50;;
68479;SDS011;55469;48.934;12.050;2022-11-20T15:42:33;1.85;;;1.30;;
68479;SDS011;55469;48.934;12.050;2022-11-20T15:44:59;1.60;;;1.20;;
68479;SDS011;55469;48.934;12.050;2022-11-20T15:47:35;1.63;;;1.40;;
68479;SDS011;55469;48.934;12.050;2022-11-20T15:50:01;1.40;;;1.10;;
68479;SDS011;55469;48.934;12.050;2022-11-20T15:52:27;2.13;;;1.52;;
68479;SDS011;55469;48.934;12.050;2022-11-20T15:54:53;1.70;;;1.50;;
68479;SDS011;55469;48.934;12.050;2022-11-20T15:57:18;2.47;;;1.48;;
68479;SDS011;55469;48.934;12.050;2022-11-20T15:59:44;1.92;;;1.50;;
68479;SDS011;55469;48.934;12.050;2022-11-20T16:02:10;1.50;;;1.30;;
68479;SDS011;55469;48.934;12.050;2022-11-20T16:04:37;2.65;;;1.30;;
68479;SDS011;55469;48.934;12.050;2022-11-20T16:07:03;1.90;;;1.40;;
68479;SDS011;55469;48.934;12.050;2022-11-20T16:09:29;2.65;;;1.20;;
68479;SDS011;55469;48.934;12.050;2022-11-20T16:11:55;1.65;;;1.50;;
68479;SDS011;55469;48.934;12.050;2022-11-20T16:14:23;1.30;;;1.20;;
68479;SDS011;55469;48.934;12.050;2022-11-20T16:17:07;1.80;;;1.42;;
68479;SDS011;55469;48.934;12.050;2022-11-20T16:19:33;1.65;;;1.45;;
68479;SDS011;55469;48.934;12.050;2022-11-20T16:21:58;1.83;;;1.60;;
68479;SDS011;55469;48.934;12.050;2022-11-20T16:24:27;2.15;;;1.65;;
68479;SDS011;55469;48.934;12.050;2022-11-20T16:26:53;1.90;;;1.40;;
68479;SDS011;55469;48.934;12.050;2022-11-20T16:29:20;1.52;;;1.35;;
68479;SDS011;55469;48.934;12.050;2022-11-20T16:31:46;1.60;;;1.50;;
68479;SDS011;55469;48.934;12.050;2022-11-20T16:34:11;1.45;;;1.30;;
68479;SDS011;55469;48.934;12.050;2022-11-20T16:36:40;1.40;;;1.30;;
68479;SDS011;55469;48.934;12.050;2022-11-20T16:39:08;1.77;;;1.42;;
68479;SDS011;55469;48.934;12.050;2022-11-20T16:41:34;1.52;;;1.25;;
68479;SDS011;55469;48.934;12.050;2022-11-20T16:44:01;1.70;;;1.55;;
68479;SDS011;55469;48.934;12.050;2022-11-20T16:46:32;1.75;;;1.48;;
68479;SDS011;55469;48.934;12.050;2022-11-20T16:48:59;1.60;;;1.50;;
68479;SDS011;55469;48.934;12.050;2022-11-20T16:51:28;1.52;;;1.40;;
68479;SDS011;55469;48.934;12.050;2022-11-20T16:53:56;1.52;;;1.42;;
68479;SDS011;55469;48.934;12.050;2022-11-20T16:56:26;1.75;;;1.50;;
68479;SDS011;55469;48.934;12.050;2022-11-20T16:58:52;2.80;;;1.60;;
68479;SDS011;55469;48.934;12.050;2022-11-20T17:01:21;1.40;;;1.30;;